sensor_id;sensor_type;location;lat;lon;timestamp;P1;durP1;ratioP1;P2;durP2;ratioP2
75746;SDS011;64363;52.198;21.020;2022-12-18T00:03:07;34.35;;;14.38;;
75746;SDS011;64363;52.198;21.020;2022-12-18T00:05:33;41.13;;;17.63;;
75746;SDS011;64363;52.198;21.020;2022-12-18T00:07:59;43.65;;;18.70;;
75746;SDS011;64363;52.198;21.020;2022-12-18T00:10:24;41.47;;;18.23;;
75746;SDS011;64363;52.198;21.020;2022-12-18T00:12:50;41.50;;;16.48;;
75746;SDS011;64363;52.198;21.020;2022-12-18T00:15:16;43.17;;;16.98;;
75746;SDS011;64363;52.198;21.020;2022-12-18T00:17:41;38.38;;;18.50;;
75746;SDS011;64363;52.198;21.020;2022-12-18T00:20:07;42.85;;;17.83;;
75746;SDS011;64363;52.198;21.020;2022-12-18T00:22:33;44.47;;;19.02;;
75746;SDS011;64363;52.198;21.020;2022-12-18T00:24:59;46.70;;;21.17;;
75746;SDS011;64363;52.198;21.020;2022-12-18T00:27:25;44.58;;;19.58;;
75746;SDS011;64363;52.198;21.020;2022-12-18T00:29:51;46.83;;;17.98;;
75746;SDS011;64363;52.198;21.020;2022-12-18T00:32:16;46.72;;;18.33;;
75746;SDS011;64363;52.198;21.020;2022-12-18T00:34:42;53.78;;;19.85;;
75746;SDS011;64363;52.198;21.020;2022-12-18T00:37:07;42.72;;;18.13;;
75746;SDS011;64363;52.198;21.020;2022-12-18T00:39:33;45.67;;;18.13;;
75746;SDS011;64363;52.198;21.020;2022-12-18T00:41:59;49.20;;;19.02;;
75746;SDS011;64363;52.198;21.020;2022-12-18T00:44:43;45.05;;;18.83;;
75746;SDS011;64363;52.198;21.020;2022-12-18T00:47:08;52.78;;;20.10;;
75746;SDS011;64363;52.198;21.020;2022-12-18T00:49:34;46.00;;;19.30;;
75746;SDS011;64363;52.198;21.020;2022-12-18T00:52:00;50.00;;;19.50;;
75746;SDS011;64363;52.198;21.020;2022-12-18T00:54:26;55.95;;;20.33;;
75746;SDS011;64363;52.198;21.020;2022-12-18T00:56:51;48.53;;;20.02;;
75746;SDS011;64363;52.198;21.020;2022-12-18T00:59:17;50.20;;;19.90;;
75746;SDS011;64363;52.198;21.020;2022-12-18T01:01:43;48.28;;;19.50;;
75746;SDS011;64363;52.198;21.020;2022-12-18T01:04:10;50.22;;;19.30;;
75746;SDS011;64363;52.198;21.020;2022-12-18T01:06:35;45.25;;;19.52;;
75746;SDS011;64363;52.198;21.020;2022-12-18T01:09:01;51.65;;;20.27;;
75746;SDS011;64363;52.198;21.020;2022-12-18T01:11:27;45.10;;;17.27;;
75746;SDS011;64363;52.198;21.020;2022-12-18T01:13:53;50.22;;;18.50;;
75746;SDS011;64363;52.198;21.020;2022-12-18T01:16:20;52.28;;;21.05;;
75746;SDS011;64363;52.198;21.020;2022-12-18T01:18:46;48.65;;;17.92;;
75746;SDS011;64363;52.198;21.020;2022-12-18T01:21:16;44.67;;;18.67;;
75746;SDS011;64363;52.198;21.020;2022-12-18T01:23:42;46.33;;;19.42;;
75746;SDS011;64363;52.198;21.020;2022-12-18T01:26:15;39.95;;;17.05;;
75746;SDS011;64363;52.198;21.020;2022-12-18T01:28:41;43.97;;;18.65;;
75746;SDS011;64363;52.198;21.020;2022-12-18T01:31:22;52.05;;;19.88;;
75746;SDS011;64363;52.198;21.020;2022-12-18T01:33:49;46.90;;;19.90;;
75746;SDS011;64363;52.198;21.020;2022-12-18T01:36:20;47.70;;;17.98;;
75746;SDS011;64363;52.198;21.020;2022-12-18T01:38:48;53.05;;;19.98;;
75746;SDS011;64363;52.198;21.020;2022-12-18T01:41:15;48.97;;;18.70;;
75746;SDS011;64363;52.198;21.020;2022-12-18T01:43:50;49.33;;;18.15;;
75746;SDS011;64363;52.198;21.020;2022-12-18T01:46:18;46.92;;;18.75;;
75746;SDS011;64363;52.198;21.020;2022-12-18T01:48:50;50.58;;;18.70;;
75746;SDS011;64363;52.198;21.020;2022-12-18T01:51:19;48.65;;;18.25;;
75746;SDS011;64363;52.198;21.020;2022-12-18T01:53:45;49.58;;;19.65;;
75746;SDS011;64363;52.198;21.020;2022-12-18T01:56:13;47.13;;;17.88;;
75746;SDS011;64363;52.198;21.020;2022-12-18T02:01:22;54.25;;;19.65;;
75746;SDS011;64363;52.198;21.020;2022-12-18T02:03:49;52.05;;;19.42;;
75746;SDS011;64363;52.198;21.020;2022-12-18T02:06:16;45.50;;;15.88;;
75746;SDS011;64363;52.198;21.020;2022-12-18T02:27:38;43.55;;;16.92;;
75746;SDS011;64363;52.198;21.020;2022-12-18T02:30:07;41.80;;;16.67;;
75746;SDS011;64363;52.198;21.020;2022-12-18T02:32:34;47.38;;;16.75;;
75746;SDS011;64363;52.198;21.020;2022-12-18T02:35:05;43.53;;;18.08;;
75746;SDS011;64363;52.198;21.020;2022-12-18T02:37:32;52.65;;;19.70;;
75746;SDS011;64363;52.198;21.020;2022-12-18T02:40:00;47.90;;;17.77;;
75746;SDS011;64363;52.198;21.020;2022-12-18T02:42:28;44.60;;;17.10;;
75746;SDS011;64363;52.198;21.020;2022-12-18T02:44:55;46.72;;;18.40;;
75746;SDS011;64363;52.198;21.020;2022-12-18T02:47:21;49.17;;;16.92;;
75746;SDS011;64363;52.198;21.020;2022-12-18T02:55:18;45.35;;;16.50;;
75746;SDS011;64363;52.198;21.020;2022-12-18T03:03:28;46.45;;;18.27;;
75746;SDS011;64363;52.198;21.020;2022-12-18T03:09:14;49.03;;;17.60;;
75746;SDS011;64363;52.198;21.020;2022-12-18T03:11:45;47.70;;;18.30;;
75746;SDS011;64363;52.198;21.020;2022-12-18T03:14:37;46.28;;;17.98;;
75746;SDS011;64363;52.198;21.020;2022-12-18T03:17:04;43.53;;;17.00;;
75746;SDS011;64363;52.198;21.020;2022-12-18T03:19:32;48.78;;;17.48;;
75746;SDS011;64363;52.198;21.020;2022-12-18T03:22:00;46.10;;;20.95;;
75746;SDS011;64363;52.198;21.020;2022-12-18T03:24:28;48.45;;;18.90;;
75746;SDS011;64363;52.198;21.020;2022-12-18T03:27:02;42.63;;;16.80;;
75746;SDS011;64363;52.198;21.020;2022-12-18T03:32:16;49.53;;;19.85;;
75746;SDS011;64363;52.198;21.020;2022-12-18T03:34:52;54.33;;;19.25;;
75746;SDS011;64363;52.198;21.020;2022-12-18T03:37:20;46.38;;;17.35;;
75746;SDS011;64363;52.198;21.020;2022-12-18T03:39:46;57.88;;;19.52;;
75746;SDS011;64363;52.198;21.020;2022-12-18T03:53:08;52.70;;;17.58;;
75746;SDS011;64363;52.198;21.020;2022-12-18T03:55:50;44.40;;;18.15;;
75746;SDS011;64363;52.198;21.020;2022-12-18T03:58:18;42.25;;;16.58;;
75746;SDS011;64363;52.198;21.020;2022-12-18T04:00:48;38.95;;;16.55;;
75746;SDS011;64363;52.198;21.020;2022-12-18T04:03:17;50.30;;;17.65;;
75746;SDS011;64363;52.198;21.020;2022-12-18T04:05:45;54.58;;;19.20;;
75746;SDS011;64363;52.198;21.020;2022-12-18T04:08:13;43.67;;;15.07;;
75746;SDS011;64363;52.198;21.020;2022-12-18T04:10:39;52.50;;;18.70;;
75746;SDS011;64363;52.198;21.020;2022-12-18T04:13:05;40.45;;;16.80;;
75746;SDS011;64363;52.198;21.020;2022-12-18T04:15:31;36.45;;;13.88;;
75746;SDS011;64363;52.198;21.020;2022-12-18T04:17:59;48.53;;;17.23;;
75746;SDS011;64363;52.198;21.020;2022-12-18T04:20:25;36.67;;;17.70;;
75746;SDS011;64363;52.198;21.020;2022-12-18T04:22:51;52.30;;;17.23;;
75746;SDS011;64363;52.198;21.020;2022-12-18T04:25:17;42.95;;;15.85;;
75746;SDS011;64363;52.198;21.020;2022-12-18T04:27:43;44.75;;;18.25;;
75746;SDS011;64363;52.198;21.020;2022-12-18T04:30:08;48.78;;;17.02;;
75746;SDS011;64363;52.198;21.020;2022-12-18T04:32:34;45.17;;;17.10;;
75746;SDS011;64363;52.198;21.020;2022-12-18T04:35:00;41.13;;;14.25;;
75746;SDS011;64363;52.198;21.020;2022-12-18T04:37:26;45.33;;;15.52;;
75746;SDS011;64363;52.198;21.020;2022-12-18T04:39:52;45.97;;;13.30;;
75746;SDS011;64363;52.198;21.020;2022-12-18T04:42:18;38.78;;;14.93;;
75746;SDS011;64363;52.198;21.020;2022-12-18T04:44:43;33.95;;;13.75;;
75746;SDS011;64363;52.198;21.020;2022-12-18T04:47:10;41.92;;;14.13;;
75746;SDS011;64363;52.198;21.020;2022-12-18T04:49:35;47.70;;;16.27;;
75746;SDS011;64363;52.198;21.020;2022-12-18T04:52:01;34.53;;;14.80;;
75746;SDS011;64363;52.198;21.020;2022-12-18T04:54:27;40.50;;;14.15;;
75746;SDS011;64363;52.198;21.020;2022-12-18T04:56:52;45.25;;;15.75;;
75746;SDS011;64363;52.198;21.020;2022-12-18T04:59:18;42.80;;;14.27;;
75746;SDS011;64363;52.198;21.020;2022-12-18T05:01:44;48.38;;;15.60;;
75746;SDS011;64363;52.198;21.020;2022-12-18T05:04:10;39.05;;;15.18;;
75746;SDS011;64363;52.198;21.020;2022-12-18T05:06:36;44.45;;;17.55;;
75746;SDS011;64363;52.198;21.020;2022-12-18T05:09:02;40.42;;;15.57;;
75746;SDS011;64363;52.198;21.020;2022-12-18T05:11:28;40.78;;;15.43;;
75746;SDS011;64363;52.198;21.020;2022-12-18T05:13:53;37.97;;;15.02;;
75746;SDS011;64363;52.198;21.020;2022-12-18T05:16:22;37.05;;;13.27;;
75746;SDS011;64363;52.198;21.020;2022-12-18T05:18:48;42.08;;;16.25;;
75746;SDS011;64363;52.198;21.020;2022-12-18T05:21:13;33.75;;;13.25;;
75746;SDS011;64363;52.198;21.020;2022-12-18T05:23:39;45.03;;;16.02;;
75746;SDS011;64363;52.198;21.020;2022-12-18T05:26:05;44.78;;;16.05;;
75746;SDS011;64363;52.198;21.020;2022-12-18T05:28:33;48.80;;;17.73;;
75746;SDS011;64363;52.198;21.020;2022-12-18T05:31:01;50.28;;;17.38;;
75746;SDS011;64363;52.198;21.020;2022-12-18T05:33:29;54.47;;;17.25;;
75746;SDS011;64363;52.198;21.020;2022-12-18T05:35:58;54.45;;;19.02;;
75746;SDS011;64363;52.198;21.020;2022-12-18T05:38:28;48.38;;;16.08;;
75746;SDS011;64363;52.198;21.020;2022-12-18T05:40:54;45.42;;;15.63;;
75746;SDS011;64363;52.198;21.020;2022-12-18T05:43:21;62.80;;;18.83;;
75746;SDS011;64363;52.198;21.020;2022-12-18T05:45:48;56.55;;;19.17;;
75746;SDS011;64363;52.198;21.020;2022-12-18T05:48:14;52.03;;;19.30;;
75746;SDS011;64363;52.198;21.020;2022-12-18T05:50:41;50.15;;;17.35;;
75746;SDS011;64363;52.198;21.020;2022-12-18T05:53:11;42.65;;;15.23;;
75746;SDS011;64363;52.198;21.020;2022-12-18T05:55:38;58.78;;;17.85;;
75746;SDS011;64363;52.198;21.020;2022-12-18T05:58:05;54.42;;;19.88;;
75746;SDS011;64363;52.198;21.020;2022-12-18T06:00:32;57.40;;;21.27;;
75746;SDS011;64363;52.198;21.020;2022-12-18T06:03:00;49.72;;;17.40;;
75746;SDS011;64363;52.198;21.020;2022-12-18T06:05:26;57.17;;;16.77;;
75746;SDS011;64363;52.198;21.020;2022-12-18T06:07:52;59.65;;;18.60;;
75746;SDS011;64363;52.198;21.020;2022-12-18T06:10:18;64.68;;;20.75;;
75746;SDS011;64363;52.198;21.020;2022-12-18T06:12:43;65.82;;;20.52;;
75746;SDS011;64363;52.198;21.020;2022-12-18T06:15:09;54.80;;;18.77;;
75746;SDS011;64363;52.198;21.020;2022-12-18T06:17:36;71.05;;;21.25;;
75746;SDS011;64363;52.198;21.020;2022-12-18T06:20:02;68.97;;;23.83;;
75746;SDS011;64363;52.198;21.020;2022-12-18T06:22:30;54.20;;;17.70;;
75746;SDS011;64363;52.198;21.020;2022-12-18T06:24:57;59.05;;;20.00;;
75746;SDS011;64363;52.198;21.020;2022-12-18T06:27:24;56.92;;;19.15;;
75746;SDS011;64363;52.198;21.020;2022-12-18T06:29:50;70.82;;;22.50;;
75746;SDS011;64363;52.198;21.020;2022-12-18T06:32:15;56.05;;;19.33;;
75746;SDS011;64363;52.198;21.020;2022-12-18T06:34:42;67.30;;;22.83;;
75746;SDS011;64363;52.198;21.020;2022-12-18T06:37:07;63.08;;;21.75;;
75746;SDS011;64363;52.198;21.020;2022-12-18T06:39:33;53.30;;;19.35;;
75746;SDS011;64363;52.198;21.020;2022-12-18T06:41:59;65.05;;;23.17;;
75746;SDS011;64363;52.198;21.020;2022-12-18T06:44:24;61.97;;;18.98;;
75746;SDS011;64363;52.198;21.020;2022-12-18T06:46:50;67.55;;;23.70;;
75746;SDS011;64363;52.198;21.020;2022-12-18T06:49:16;66.80;;;18.90;;
75746;SDS011;64363;52.198;21.020;2022-12-18T06:51:42;62.42;;;20.00;;
75746;SDS011;64363;52.198;21.020;2022-12-18T06:54:08;58.67;;;20.73;;
75746;SDS011;64363;52.198;21.020;2022-12-18T06:56:33;57.40;;;20.25;;
75746;SDS011;64363;52.198;21.020;2022-12-18T06:58:59;62.30;;;20.15;;
75746;SDS011;64363;52.198;21.020;2022-12-18T07:01:26;63.58;;;19.95;;
75746;SDS011;64363;52.198;21.020;2022-12-18T07:03:52;68.68;;;20.70;;
75746;SDS011;64363;52.198;21.020;2022-12-18T07:06:20;68.03;;;23.05;;
75746;SDS011;64363;52.198;21.020;2022-12-18T07:08:48;66.63;;;20.60;;
75746;SDS011;64363;52.198;21.020;2022-12-18T07:11:14;56.83;;;17.08;;
75746;SDS011;64363;52.198;21.020;2022-12-18T07:13:42;61.35;;;21.08;;
75746;SDS011;64363;52.198;21.020;2022-12-18T07:16:09;53.38;;;18.88;;
75746;SDS011;64363;52.198;21.020;2022-12-18T07:18:39;57.38;;;19.48;;
75746;SDS011;64363;52.198;21.020;2022-12-18T07:21:06;54.42;;;20.38;;
75746;SDS011;64363;52.198;21.020;2022-12-18T07:23:36;59.67;;;20.95;;
75746;SDS011;64363;52.198;21.020;2022-12-18T07:26:06;54.05;;;17.55;;
75746;SDS011;64363;52.198;21.020;2022-12-18T07:28:34;53.33;;;19.33;;
75746;SDS011;64363;52.198;21.020;2022-12-18T07:31:04;50.25;;;16.85;;
75746;SDS011;64363;52.198;21.020;2022-12-18T07:33:31;60.08;;;17.83;;
75746;SDS011;64363;52.198;21.020;2022-12-18T07:36:01;50.22;;;20.33;;
75746;SDS011;64363;52.198;21.020;2022-12-18T07:38:29;52.05;;;17.90;;
75746;SDS011;64363;52.198;21.020;2022-12-18T07:40:59;49.25;;;18.25;;
75746;SDS011;64363;52.198;21.020;2022-12-18T07:43:26;52.20;;;18.67;;
75746;SDS011;64363;52.198;21.020;2022-12-18T07:45:52;62.63;;;20.02;;
75746;SDS011;64363;52.198;21.020;2022-12-18T07:48:17;67.80;;;20.80;;
75746;SDS011;64363;52.198;21.020;2022-12-18T07:50:43;68.70;;;18.50;;
75746;SDS011;64363;52.198;21.020;2022-12-18T07:53:09;58.28;;;21.27;;
75746;SDS011;64363;52.198;21.020;2022-12-18T07:55:34;64.75;;;20.88;;
75746;SDS011;64363;52.198;21.020;2022-12-18T07:58:02;67.57;;;21.80;;
75746;SDS011;64363;52.198;21.020;2022-12-18T08:00:29;64.25;;;20.23;;
75746;SDS011;64363;52.198;21.020;2022-12-18T08:02:55;57.72;;;18.25;;
75746;SDS011;64363;52.198;21.020;2022-12-18T08:05:21;49.15;;;17.75;;
75746;SDS011;64363;52.198;21.020;2022-12-18T08:07:47;53.00;;;19.42;;
75746;SDS011;64363;52.198;21.020;2022-12-18T08:10:13;54.97;;;19.13;;
75746;SDS011;64363;52.198;21.020;2022-12-18T08:12:39;53.75;;;19.83;;
75746;SDS011;64363;52.198;21.020;2022-12-18T08:15:05;57.92;;;19.73;;
75746;SDS011;64363;52.198;21.020;2022-12-18T08:17:31;63.25;;;21.27;;
75746;SDS011;64363;52.198;21.020;2022-12-18T08:19:57;56.33;;;19.95;;
75746;SDS011;64363;52.198;21.020;2022-12-18T08:22:23;63.25;;;21.73;;
75746;SDS011;64363;52.198;21.020;2022-12-18T08:24:49;59.67;;;18.38;;
75746;SDS011;64363;52.198;21.020;2022-12-18T08:27:14;58.13;;;20.08;;
75746;SDS011;64363;52.198;21.020;2022-12-18T08:29:40;52.58;;;17.67;;
75746;SDS011;64363;52.198;21.020;2022-12-18T08:32:06;57.17;;;18.40;;
75746;SDS011;64363;52.198;21.020;2022-12-18T08:34:32;60.40;;;20.52;;
75746;SDS011;64363;52.198;21.020;2022-12-18T08:36:58;53.65;;;18.25;;
75746;SDS011;64363;52.198;21.020;2022-12-18T08:39:23;54.83;;;18.77;;
75746;SDS011;64363;52.198;21.020;2022-12-18T08:41:49;58.30;;;19.20;;
75746;SDS011;64363;52.198;21.020;2022-12-18T08:44:33;51.85;;;18.05;;
75746;SDS011;64363;52.198;21.020;2022-12-18T08:47:05;51.70;;;18.20;;
75746;SDS011;64363;52.198;21.020;2022-12-18T08:49:32;57.50;;;19.27;;
75746;SDS011;64363;52.198;21.020;2022-12-18T08:51:58;53.40;;;17.40;;
75746;SDS011;64363;52.198;21.020;2022-12-18T08:54:24;54.67;;;19.98;;
75746;SDS011;64363;52.198;21.020;2022-12-18T08:56:50;56.47;;;19.58;;
75746;SDS011;64363;52.198;21.020;2022-12-18T08:59:17;59.08;;;19.50;;
75746;SDS011;64363;52.198;21.020;2022-12-18T09:01:44;62.30;;;18.90;;
75746;SDS011;64363;52.198;21.020;2022-12-18T09:04:10;59.10;;;20.02;;
75746;SDS011;64363;52.198;21.020;2022-12-18T09:06:37;54.08;;;18.80;;
75746;SDS011;64363;52.198;21.020;2022-12-18T09:09:04;54.78;;;19.90;;
75746;SDS011;64363;52.198;21.020;2022-12-18T09:11:31;56.30;;;21.35;;
75746;SDS011;64363;52.198;21.020;2022-12-18T09:13:58;52.15;;;19.60;;
75746;SDS011;64363;52.198;21.020;2022-12-18T09:16:26;71.18;;;22.70;;
75746;SDS011;64363;52.198;21.020;2022-12-18T09:18:57;60.35;;;21.60;;
75746;SDS011;64363;52.198;21.020;2022-12-18T09:21:27;63.33;;;21.70;;
75746;SDS011;64363;52.198;21.020;2022-12-18T09:23:58;67.50;;;23.98;;
75746;SDS011;64363;52.198;21.020;2022-12-18T09:26:24;61.42;;;22.52;;
75746;SDS011;64363;52.198;21.020;2022-12-18T09:28:50;34.60;;;15.60;;
75746;SDS011;64363;52.198;21.020;2022-12-18T09:31:18;65.32;;;23.92;;
75746;SDS011;64363;52.198;21.020;2022-12-18T09:33:45;63.03;;;22.02;;
75746;SDS011;64363;52.198;21.020;2022-12-18T09:36:13;61.15;;;22.13;;
75746;SDS011;64363;52.198;21.020;2022-12-18T09:38:40;63.20;;;22.05;;
75746;SDS011;64363;52.198;21.020;2022-12-18T09:43:51;56.20;;;21.00;;
75746;SDS011;64363;52.198;21.020;2022-12-18T09:46:31;56.00;;;21.20;;
75746;SDS011;64363;52.198;21.020;2022-12-18T09:49:00;60.95;;;23.30;;
75746;SDS011;64363;52.198;21.020;2022-12-18T09:54:26;63.35;;;24.55;;
75746;SDS011;64363;52.198;21.020;2022-12-18T09:57:01;67.70;;;24.20;;
75746;SDS011;64363;52.198;21.020;2022-12-18T09:59:30;62.50;;;24.33;;
75746;SDS011;64363;52.198;21.020;2022-12-18T10:02:21;61.03;;;25.15;;
75746;SDS011;64363;52.198;21.020;2022-12-18T10:04:54;61.13;;;23.27;;
75746;SDS011;64363;52.198;21.020;2022-12-18T10:10:04;59.10;;;24.20;;
75746;SDS011;64363;52.198;21.020;2022-12-18T10:12:41;63.55;;;23.45;;
75746;SDS011;64363;52.198;21.020;2022-12-18T10:15:20;53.03;;;20.77;;
75746;SDS011;64363;52.198;21.020;2022-12-18T10:20:56;71.85;;;26.35;;
75746;SDS011;64363;52.198;21.020;2022-12-18T10:23:32;58.08;;;21.40;;
75746;SDS011;64363;52.198;21.020;2022-12-18T10:26:03;65.63;;;26.13;;
75746;SDS011;64363;52.198;21.020;2022-12-18T10:28:32;82.63;;;28.35;;
75746;SDS011;64363;52.198;21.020;2022-12-18T10:33:46;72.05;;;24.05;;
75746;SDS011;64363;52.198;21.020;2022-12-18T10:36:12;72.10;;;26.00;;
75746;SDS011;64363;52.198;21.020;2022-12-18T10:38:38;72.88;;;25.88;;
75746;SDS011;64363;52.198;21.020;2022-12-18T10:41:26;69.15;;;25.20;;
75746;SDS011;64363;52.198;21.020;2022-12-18T10:46:38;67.25;;;24.60;;
75746;SDS011;64363;52.198;21.020;2022-12-18T10:49:04;79.43;;;27.33;;
75746;SDS011;64363;52.198;21.020;2022-12-18T10:51:31;72.65;;;25.77;;
75746;SDS011;64363;52.198;21.020;2022-12-18T10:54:21;72.25;;;24.70;;
75746;SDS011;64363;52.198;21.020;2022-12-18T10:56:49;63.65;;;22.75;;
75746;SDS011;64363;52.198;21.020;2022-12-18T10:59:16;61.90;;;21.83;;
75746;SDS011;64363;52.198;21.020;2022-12-18T11:01:56;65.15;;;23.38;;
75746;SDS011;64363;52.198;21.020;2022-12-18T11:09:26;65.78;;;23.02;;
75746;SDS011;64363;52.198;21.020;2022-12-18T11:11:57;71.60;;;22.58;;
75746;SDS011;64363;52.198;21.020;2022-12-18T11:14:27;61.53;;;24.20;;
75746;SDS011;64363;52.198;21.020;2022-12-18T11:16:55;66.53;;;23.25;;
75746;SDS011;64363;52.198;21.020;2022-12-18T11:22:01;71.03;;;25.10;;
75746;SDS011;64363;52.198;21.020;2022-12-18T11:24:35;66.25;;;25.27;;
75746;SDS011;64363;52.198;21.020;2022-12-18T11:27:02;65.13;;;22.52;;
75746;SDS011;64363;52.198;21.020;2022-12-18T11:29:34;65.72;;;22.10;;
75746;SDS011;64363;52.198;21.020;2022-12-18T11:35:10;70.10;;;24.80;;
75746;SDS011;64363;52.198;21.020;2022-12-18T11:37:42;79.10;;;25.13;;
75746;SDS011;64363;52.198;21.020;2022-12-18T11:42:48;72.15;;;25.08;;
75746;SDS011;64363;52.198;21.020;2022-12-18T11:45:23;71.97;;;25.98;;
75746;SDS011;64363;52.198;21.020;2022-12-18T11:50:24;75.45;;;26.58;;
75746;SDS011;64363;52.198;21.020;2022-12-18T11:52:54;67.43;;;23.20;;
75746;SDS011;64363;52.198;21.020;2022-12-18T12:04:07;66.20;;;23.92;;
75746;SDS011;64363;52.198;21.020;2022-12-18T12:09:47;65.70;;;25.70;;
75746;SDS011;64363;52.198;21.020;2022-12-18T12:12:23;59.78;;;21.17;;
75746;SDS011;64363;52.198;21.020;2022-12-18T12:20:42;52.47;;;23.30;;
75746;SDS011;64363;52.198;21.020;2022-12-18T12:26:01;65.88;;;20.52;;
75746;SDS011;64363;52.198;21.020;2022-12-18T12:28:36;62.75;;;21.63;;
75746;SDS011;64363;52.198;21.020;2022-12-18T12:31:21;62.75;;;20.77;;
75746;SDS011;64363;52.198;21.020;2022-12-18T12:39:10;68.30;;;22.25;;
75746;SDS011;64363;52.198;21.020;2022-12-18T12:41:40;71.35;;;24.02;;
75746;SDS011;64363;52.198;21.020;2022-12-18T12:44:35;75.22;;;26.48;;
75746;SDS011;64363;52.198;21.020;2022-12-18T12:47:15;66.50;;;24.45;;
75746;SDS011;64363;52.198;21.020;2022-12-18T12:49:44;69.20;;;24.05;;
75746;SDS011;64363;52.198;21.020;2022-12-18T12:55:07;67.35;;;23.90;;
75746;SDS011;64363;52.198;21.020;2022-12-18T13:00:21;60.33;;;21.77;;
75746;SDS011;64363;52.198;21.020;2022-12-18T13:03:05;63.63;;;23.15;;
75746;SDS011;64363;52.198;21.020;2022-12-18T13:05:54;70.47;;;24.73;;
75746;SDS011;64363;52.198;21.020;2022-12-18T13:08:25;61.45;;;24.52;;
75746;SDS011;64363;52.198;21.020;2022-12-18T13:10:54;66.22;;;23.20;;
75746;SDS011;64363;52.198;21.020;2022-12-18T13:13:47;70.53;;;24.55;;
75746;SDS011;64363;52.198;21.020;2022-12-18T13:16:14;69.30;;;23.02;;
75746;SDS011;64363;52.198;21.020;2022-12-18T13:18:54;67.28;;;23.67;;
75746;SDS011;64363;52.198;21.020;2022-12-18T13:21:28;75.28;;;25.25;;
75746;SDS011;64363;52.198;21.020;2022-12-18T13:23:56;60.17;;;21.92;;
75746;SDS011;64363;52.198;21.020;2022-12-18T13:26:33;61.13;;;21.70;;
75746;SDS011;64363;52.198;21.020;2022-12-18T13:28:59;62.97;;;22.35;;
75746;SDS011;64363;52.198;21.020;2022-12-18T13:34:20;61.70;;;22.40;;
75746;SDS011;64363;52.198;21.020;2022-12-18T13:36:48;59.50;;;21.35;;
75746;SDS011;64363;52.198;21.020;2022-12-18T13:41:47;76.15;;;25.42;;
75746;SDS011;64363;52.198;21.020;2022-12-18T13:47:26;54.50;;;19.10;;
75746;SDS011;64363;52.198;21.020;2022-12-18T13:49:56;63.05;;;23.67;;
75746;SDS011;64363;52.198;21.020;2022-12-18T13:52:26;52.97;;;21.42;;
75746;SDS011;64363;52.198;21.020;2022-12-18T13:54:54;61.50;;;22.48;;
75746;SDS011;64363;52.198;21.020;2022-12-18T14:00:14;59.03;;;22.00;;
75746;SDS011;64363;52.198;21.020;2022-12-18T14:02:44;58.50;;;24.35;;
75746;SDS011;64363;52.198;21.020;2022-12-18T14:05:23;59.40;;;21.23;;
75746;SDS011;64363;52.198;21.020;2022-12-18T14:08:06;73.18;;;23.00;;
75746;SDS011;64363;52.198;21.020;2022-12-18T14:10:35;60.50;;;24.05;;
75746;SDS011;64363;52.198;21.020;2022-12-18T14:13:07;54.83;;;21.40;;
75746;SDS011;64363;52.198;21.020;2022-12-18T14:15:44;56.80;;;21.38;;
75746;SDS011;64363;52.198;21.020;2022-12-18T14:18:23;57.83;;;20.17;;
75746;SDS011;64363;52.198;21.020;2022-12-18T14:20:52;61.00;;;22.58;;
75746;SDS011;64363;52.198;21.020;2022-12-18T14:23:35;63.90;;;22.73;;
75746;SDS011;64363;52.198;21.020;2022-12-18T14:26:17;68.82;;;20.90;;
75746;SDS011;64363;52.198;21.020;2022-12-18T14:28:55;58.22;;;22.70;;
75746;SDS011;64363;52.198;21.020;2022-12-18T14:31:23;65.65;;;28.48;;
75746;SDS011;64363;52.198;21.020;2022-12-18T14:33:53;66.82;;;24.45;;
75746;SDS011;64363;52.198;21.020;2022-12-18T14:36:20;63.50;;;24.85;;
75746;SDS011;64363;52.198;21.020;2022-12-18T14:38:49;65.47;;;22.67;;
75746;SDS011;64363;52.198;21.020;2022-12-18T14:41:20;50.72;;;18.73;;
75746;SDS011;64363;52.198;21.020;2022-12-18T14:43:48;49.83;;;20.17;;
75746;SDS011;64363;52.198;21.020;2022-12-18T14:48:51;54.50;;;20.77;;
75746;SDS011;64363;52.198;21.020;2022-12-18T14:51:18;59.90;;;23.15;;
75746;SDS011;64363;52.198;21.020;2022-12-18T14:53:47;59.88;;;21.58;;
75746;SDS011;64363;52.198;21.020;2022-12-18T14:56:31;59.65;;;21.17;;
75746;SDS011;64363;52.198;21.020;2022-12-18T14:59:00;59.70;;;22.92;;
75746;SDS011;64363;52.198;21.020;2022-12-18T15:04:00;72.40;;;24.67;;
75746;SDS011;64363;52.198;21.020;2022-12-18T15:09:01;70.75;;;24.02;;
75746;SDS011;64363;52.198;21.020;2022-12-18T15:11:42;70.20;;;23.75;;
75746;SDS011;64363;52.198;21.020;2022-12-18T15:16:55;63.78;;;23.27;;
75746;SDS011;64363;52.198;21.020;2022-12-18T15:19:23;66.50;;;26.02;;
75746;SDS011;64363;52.198;21.020;2022-12-18T15:22:03;65.30;;;24.60;;
75746;SDS011;64363;52.198;21.020;2022-12-18T15:24:30;59.28;;;21.52;;
75746;SDS011;64363;52.198;21.020;2022-12-18T15:26:58;56.80;;;20.73;;
75746;SDS011;64363;52.198;21.020;2022-12-18T15:29:24;71.32;;;24.50;;
75746;SDS011;64363;52.198;21.020;2022-12-18T15:32:01;62.60;;;22.17;;
75746;SDS011;64363;52.198;21.020;2022-12-18T15:34:29;59.08;;;23.00;;
75746;SDS011;64363;52.198;21.020;2022-12-18T15:36:56;57.92;;;21.35;;
75746;SDS011;64363;52.198;21.020;2022-12-18T15:39:22;54.67;;;20.65;;
75746;SDS011;64363;52.198;21.020;2022-12-18T15:41:48;64.22;;;22.13;;
75746;SDS011;64363;52.198;21.020;2022-12-18T15:44:33;61.08;;;23.45;;
75746;SDS011;64363;52.198;21.020;2022-12-18T15:46:59;53.65;;;21.17;;
75746;SDS011;64363;52.198;21.020;2022-12-18T15:49:24;55.63;;;21.73;;
75746;SDS011;64363;52.198;21.020;2022-12-18T15:51:53;62.25;;;23.27;;
75746;SDS011;64363;52.198;21.020;2022-12-18T15:54:22;51.92;;;21.25;;
75746;SDS011;64363;52.198;21.020;2022-12-18T15:57:10;53.83;;;20.75;;
75746;SDS011;64363;52.198;21.020;2022-12-18T15:59:50;40.28;;;18.27;;
75746;SDS011;64363;52.198;21.020;2022-12-18T16:02:21;60.58;;;19.85;;
75746;SDS011;64363;52.198;21.020;2022-12-18T16:04:48;54.63;;;18.70;;
75746;SDS011;64363;52.198;21.020;2022-12-18T16:07:15;47.78;;;18.17;;
75746;SDS011;64363;52.198;21.020;2022-12-18T16:09:41;48.00;;;18.48;;
75746;SDS011;64363;52.198;21.020;2022-12-18T16:12:11;59.58;;;20.45;;
75746;SDS011;64363;52.198;21.020;2022-12-18T16:14:41;59.10;;;19.63;;
75746;SDS011;64363;52.198;21.020;2022-12-18T16:17:08;50.28;;;18.67;;
75746;SDS011;64363;52.198;21.020;2022-12-18T16:19:36;53.15;;;18.55;;
75746;SDS011;64363;52.198;21.020;2022-12-18T16:22:01;50.92;;;18.33;;
75746;SDS011;64363;52.198;21.020;2022-12-18T16:24:30;44.83;;;18.55;;
75746;SDS011;64363;52.198;21.020;2022-12-18T16:26:58;49.33;;;17.67;;
75746;SDS011;64363;52.198;21.020;2022-12-18T16:29:25;46.38;;;17.00;;
75746;SDS011;64363;52.198;21.020;2022-12-18T16:31:56;46.13;;;17.90;;
75746;SDS011;64363;52.198;21.020;2022-12-18T16:36:53;50.60;;;16.98;;
75746;SDS011;64363;52.198;21.020;2022-12-18T16:39:20;48.05;;;18.58;;